Terminal Aerodrome Forecast
Issued by NWS Wilmington, OH

Home | Current Version | Previous Version | Text Only | Print | Product List | Glossary On
Versions: 1 2 3 4 5 6 7 8 9 10 11 12 13 14 15 16 17 18 19
000
FTUS41 KILN 261100
TAFCMH
TAF
KCMH 261126Z 2612/2712 19010KT P6SM SCT025 BKN120
     FM261600 20012G22KT P6SM BKN035
     FM262000 20014G24KT P6SM VCTS BKN040CB
      TEMPO 2700/2702 3SM TSRA BR OVC022CB
     FM270200 20012KT P6SM VCSH BKN040
     FM270800 20012KT P6SM BKN012=

USA.gov is the U.S. government's official web portal to all federal, state and local government web resources and services.